createdAt,value
2019-01-02T00:00:13.648Z,73.21
2019-01-02T00:02:41.122Z,72.30
2019-01-02T00:05:08.149Z,72.72
2019-01-02T00:07:35.619Z,72.83
2019-01-02T00:10:02.728Z,71.80
2019-01-02T00:12:29.762Z,71.47
2019-01-02T00:14:56.859Z,70.57
2019-01-02T00:17:23.918Z,70.57
2019-01-02T00:19:51.266Z,71.04
2019-01-02T00:22:18.310Z,71.37
2019-01-02T00:24:45.754Z,71.51
2019-01-02T00:27:12.804Z,71.75
2019-01-02T00:29:40.162Z,72.04
2019-01-02T00:32:07.194Z,71.00
2019-01-02T00:34:34.536Z,70.92
2019-01-02T00:37:01.613Z,71.44
2019-01-02T00:39:29.041Z,72.19
2019-01-02T00:41:56.094Z,72.32
2019-01-02T00:44:23.424Z,72.69
2019-01-02T00:46:50.481Z,72.79
2019-01-02T00:49:17.818Z,72.93
2019-01-02T00:51:44.874Z,72.36
2019-01-02T00:54:12.328Z,72.57
2019-01-02T00:56:39.400Z,73.24
2019-01-02T00:59:06.749Z,73.48
2019-01-02T01:01:33.791Z,73.79
2019-01-02T01:04:00.937Z,74.08
2019-01-02T01:06:27.983Z,74.95
2019-01-02T01:08:55.347Z,75.54
2019-01-02T01:11:22.387Z,76.10
2019-01-02T01:13:52.209Z,76.32
2019-01-02T01:16:19.255Z,76.67
2019-01-02T01:18:46.308Z,76.99
2019-01-02T01:21:13.355Z,76.96
2019-01-02T01:23:40.413Z,77.08
2019-01-02T01:26:07.477Z,77.18
2019-01-02T01:28:34.835Z,77.20
2019-01-02T01:31:01.874Z,77.36
2019-01-02T01:33:28.905Z,77.35
2019-01-02T01:35:55.952Z,77.28
2019-01-02T01:38:23.026Z,76.54
2019-01-02T01:40:50.380Z,76.31
2019-01-02T01:43:17.405Z,76.00
2019-01-02T01:45:44.443Z,75.83
2019-01-02T01:48:11.490Z,75.69
2019-01-02T01:50:38.555Z,75.62
2019-01-02T01:53:05.793Z,75.61
2019-01-02T01:55:32.894Z,75.47
2019-01-02T01:58:07.861Z,75.41
2019-01-02T02:00:34.936Z,75.34
2019-01-02T02:03:01.973Z,75.30
2019-01-02T02:05:29.318Z,75.40
2019-01-02T02:07:56.347Z,75.44
2019-01-02T02:10:23.370Z,75.48
2019-01-02T02:12:50.405Z,75.69
2019-01-02T02:15:17.441Z,76.09
2019-01-02T02:17:53.046Z,76.11
2019-01-02T02:20:20.112Z,76.01
2019-01-02T02:22:47.146Z,76.07
2019-01-02T02:25:35.218Z,76.17
2019-01-02T02:28:02.300Z,75.90
2019-01-02T02:30:29.337Z,75.65
2019-01-02T02:32:56.401Z,75.63
2019-01-02T02:35:23.439Z,75.71
2019-01-02T02:37:50.780Z,75.77
2019-01-02T02:40:17.840Z,75.83
2019-01-02T02:42:44.889Z,75.79
2019-01-02T02:45:12.552Z,75.54
2019-01-02T02:47:39.902Z,75.25
2019-01-02T02:50:09.752Z,75.21
2019-01-02T02:52:36.811Z,75.40
2019-01-02T02:55:04.106Z,75.46
2019-01-02T02:57:31.160Z,75.38
2019-01-02T02:59:58.217Z,75.54
2019-01-02T03:02:25.273Z,75.34
2019-01-02T03:04:52.325Z,75.25
2019-01-02T03:07:19.796Z,75.06
2019-01-02T03:09:47.145Z,74.35
2019-01-02T03:12:14.497Z,73.87
2019-01-02T03:14:41.553Z,73.67
2019-01-02T03:17:08.622Z,73.25
2019-01-02T03:19:35.986Z,72.76
2019-01-02T03:22:03.374Z,72.45
2019-01-02T03:24:30.704Z,72.21
2019-01-02T03:26:57.954Z,71.73
2019-01-02T03:29:25.003Z,71.35
2019-01-02T03:31:52.255Z,71.54
2019-01-02T03:34:19.607Z,70.99
2019-01-02T03:36:46.669Z,71.12
2019-01-02T03:39:13.729Z,70.86
2019-01-02T03:41:40.773Z,70.05
2019-01-02T03:44:07.826Z,70.20
2019-01-02T03:46:34.856Z,70.48
2019-01-02T03:49:01.922Z,70.45
2019-01-02T03:51:28.952Z,70.38
2019-01-02T03:53:55.996Z,70.38
2019-01-02T03:56:23.071Z,70.51
2019-01-02T03:58:50.105Z,70.71
2019-01-02T04:01:17.159Z,70.51
2019-01-02T04:03:44.187Z,70.59
2019-01-02T04:06:11.240Z,70.80
2019-01-02T04:08:38.270Z,69.91
2019-01-02T04:11:05.312Z,69.92
2019-01-02T04:13:32.351Z,69.14
2019-01-02T04:15:59.389Z,69.58
2019-01-02T04:18:26.442Z,69.88
2019-01-02T04:20:53.471Z,69.97
2019-01-02T04:23:20.539Z,69.98
2019-01-02T04:25:47.579Z,69.53
2019-01-02T04:28:16.158Z,69.56
2019-01-02T04:30:43.212Z,69.55
2019-01-02T04:33:10.255Z,69.57
2019-01-02T04:35:37.286Z,69.47
2019-01-02T04:38:04.367Z,69.21
2019-01-02T04:40:31.402Z,68.82
2019-01-02T04:42:58.495Z,68.62
2019-01-02T04:45:25.458Z,68.39
2019-01-02T04:47:52.510Z,68.11
2019-01-02T04:50:19.570Z,68.52
2019-01-02T04:52:46.618Z,68.69
2019-01-02T04:55:13.639Z,68.96
2019-01-02T04:57:40.696Z,68.84
2019-01-02T05:00:10.735Z,69.02
2019-01-02T05:02:37.769Z,69.42
2019-01-02T05:05:04.954Z,69.86
2019-01-02T05:07:32.115Z,69.82
2019-01-02T05:09:59.113Z,70.00
2019-01-02T05:12:26.135Z,69.92
2019-01-02T05:14:53.188Z,70.05
2019-01-02T05:17:20.221Z,70.27
2019-01-02T05:19:47.282Z,70.06
2019-01-02T05:22:14.304Z,69.87
2019-01-02T05:24:41.368Z,69.26
2019-01-02T05:27:08.396Z,68.68
2019-01-02T05:29:35.448Z,68.81
2019-01-02T05:32:02.522Z,68.74
2019-01-02T05:34:29.588Z,68.64
2019-01-02T05:36:56.613Z,68.83
2019-01-02T05:39:23.645Z,68.79
2019-01-02T05:41:50.687Z,69.17
2019-01-02T05:44:17.730Z,69.49
2019-01-02T05:46:44.761Z,69.21
2019-01-02T05:49:11.797Z,69.06
2019-01-02T05:51:38.823Z,68.63
2019-01-02T05:54:05.902Z,68.80
2019-01-02T05:56:32.921Z,68.76
2019-01-02T05:58:59.981Z,68.54
2019-01-02T06:01:27.039Z,68.73
2019-01-02T06:03:54.098Z,68.65
2019-01-02T06:06:21.129Z,69.05
2019-01-02T06:08:48.163Z,68.76
2019-01-02T06:11:15.217Z,69.44
2019-01-02T06:13:42.250Z,69.34
2019-01-02T06:16:09.283Z,69.26
2019-01-02T06:18:36.324Z,69.45
2019-01-02T06:21:03.381Z,69.88
2019-01-02T06:23:30.421Z,70.01
2019-01-02T06:25:57.489Z,70.37
2019-01-02T06:28:24.540Z,70.45
2019-01-02T06:30:51.604Z,70.64
2019-01-02T06:33:18.651Z,71.04
2019-01-02T06:35:45.670Z,71.04
2019-01-02T06:38:12.707Z,71.32
2019-01-02T06:40:39.778Z,71.30
2019-01-02T06:43:06.813Z,71.40
2019-01-02T06:45:33.838Z,71.20
2019-01-02T06:48:00.900Z,71.21
2019-01-02T06:50:27.926Z,71.15
2019-01-02T06:52:55.015Z,70.88
2019-01-02T06:55:22.054Z,70.57
2019-01-02T06:57:49.099Z,71.08
2019-01-02T07:00:27.972Z,70.91
2019-01-02T07:02:55.029Z,70.58
2019-01-02T07:05:22.103Z,70.31
2019-01-02T07:07:49.154Z,69.96
2019-01-02T07:10:16.202Z,70.16
2019-01-02T07:12:43.232Z,70.07
2019-01-02T07:15:10.326Z,70.13
2019-01-02T07:17:37.377Z,70.34
2019-01-02T07:20:05.781Z,70.53
2019-01-02T07:22:32.793Z,70.66
2019-01-02T07:24:59.850Z,70.56
2019-01-02T07:27:26.904Z,70.75
2019-01-02T07:29:53.961Z,70.72
2019-01-02T07:32:24.573Z,70.82
2019-01-02T07:35:27.536Z,71.11
2019-01-02T07:38:18.654Z,71.33
2019-01-02T07:41:35.257Z,71.69
2019-01-02T07:44:52.977Z,71.44
2019-01-02T07:48:16.653Z,71.29
2019-01-02T07:51:11.598Z,71.28
2019-01-02T07:54:17.585Z,71.04
2019-01-02T07:57:23.581Z,71.33
2019-01-02T08:00:29.577Z,71.91
2019-01-02T08:03:35.577Z,72.13
2019-01-02T08:06:41.584Z,72.38
2019-01-02T08:09:32.431Z,72.34
2019-01-02T08:12:25.280Z,72.26
2019-01-02T08:15:31.284Z,71.96
2019-01-02T08:18:26.383Z,71.99
2019-01-02T08:21:32.411Z,72.63
2019-01-02T08:24:38.479Z,71.37
2019-01-02T08:27:44.455Z,71.44
2019-01-02T08:30:50.452Z,70.84
2019-01-02T08:33:56.482Z,70.51
2019-01-02T08:36:50.851Z,70.93
2019-01-02T08:39:56.835Z,71.06
2019-01-02T08:43:02.860Z,70.49
2019-01-02T08:46:08.860Z,70.79
2019-01-02T08:49:14.854Z,70.30
2019-01-02T08:52:20.896Z,70.22
2019-01-02T08:55:19.119Z,70.09
2019-01-02T08:57:59.144Z,69.84
2019-01-02T09:01:05.158Z,69.60
2019-01-02T09:04:11.179Z,69.98
2019-01-02T09:07:18.089Z,70.09
2019-01-02T09:10:24.095Z,69.71
2019-01-02T09:13:30.100Z,69.86
2019-01-02T09:16:36.099Z,69.39
2019-01-02T09:19:42.082Z,69.38
2019-01-02T09:22:48.083Z,69.35
2019-01-02T09:25:54.163Z,69.55
2019-01-02T09:28:45.361Z,69.48
2019-01-02T09:31:51.379Z,69.27
2019-01-02T09:34:57.419Z,68.41
2019-01-02T09:38:03.384Z,68.42
2019-01-02T09:40:54.227Z,67.68
2019-01-02T09:43:53.913Z,67.57
2019-01-02T09:46:59.896Z,67.61
2019-01-02T09:50:06.005Z,66.77
2019-01-02T09:53:03.587Z,66.89
2019-01-02T09:56:09.639Z,66.45
2019-01-02T09:59:15.673Z,66.68
2019-01-02T10:01:55.962Z,66.58
2019-01-02T10:05:01.961Z,66.78
2019-01-02T10:08:07.949Z,65.76
2019-01-02T10:11:08.537Z,65.79
2019-01-02T10:14:08.127Z,66.24
2019-01-02T10:17:14.112Z,66.57
2019-01-02T10:20:20.176Z,66.34
2019-01-02T10:23:20.770Z,66.50
2019-01-02T10:26:13.089Z,66.51
2019-01-02T10:29:04.581Z,66.69
2019-01-02T10:31:55.099Z,66.29
2019-01-02T10:35:01.141Z,65.94
2019-01-02T10:37:52.501Z,66.31
2019-01-02T10:40:58.493Z,65.45
2019-01-02T10:43:50.685Z,65.93
2019-01-02T10:46:56.683Z,66.08
2019-01-02T10:49:57.433Z,66.01
2019-01-02T10:53:03.425Z,65.97
2019-01-02T10:56:05.202Z,65.72
2019-01-02T10:59:11.259Z,65.33
2019-01-02T11:02:17.256Z,65.01
2019-01-02T11:05:23.254Z,65.14
2019-01-02T11:08:29.256Z,63.83
2019-01-02T11:11:35.260Z,63.77
2019-01-02T11:14:41.264Z,64.15
2019-01-02T11:17:47.528Z,64.61
2019-01-02T11:20:53.538Z,64.83
2019-01-02T11:23:59.542Z,64.95
2019-01-02T11:27:05.524Z,65.15
2019-01-02T11:30:11.540Z,64.31
2019-01-02T11:33:17.538Z,65.00
2019-01-02T11:36:23.525Z,64.63
2019-01-02T11:39:29.527Z,64.32
2019-01-02T11:42:24.239Z,62.57
2019-01-02T11:45:11.392Z,62.93
2019-01-02T11:47:38.460Z,63.61
2019-01-02T11:50:08.264Z,63.37
2019-01-02T11:52:35.316Z,63.42
2019-01-02T11:55:02.356Z,63.50
2019-01-02T11:57:29.423Z,63.86
2019-01-02T11:59:56.488Z,63.46
2019-01-02T12:02:23.531Z,64.23
2019-01-02T12:04:50.586Z,63.79
2019-01-02T12:07:17.636Z,63.75
2019-01-02T12:09:44.715Z,64.29
2019-01-02T12:12:11.961Z,64.21
2019-01-02T12:14:39.001Z,63.78
2019-01-02T12:17:06.059Z,63.92
2019-01-02T12:19:33.101Z,64.24
2019-01-02T12:22:00.155Z,63.89
2019-01-02T12:24:27.225Z,63.62
2019-01-02T12:26:54.290Z,63.41
2019-01-02T12:29:21.331Z,63.04
2019-01-02T12:31:48.372Z,63.10
2019-01-02T12:34:15.443Z,62.98
2019-01-02T12:36:42.515Z,62.97
2019-01-02T12:39:09.575Z,62.51
2019-01-02T12:41:36.635Z,62.63
2019-01-02T12:44:03.661Z,62.57
2019-01-02T12:46:30.725Z,62.62
2019-01-02T12:48:57.929Z,62.53
2019-01-02T12:51:24.995Z,62.33
2019-01-02T12:53:52.068Z,62.40
2019-01-02T12:56:19.135Z,62.49
2019-01-02T12:58:46.237Z,62.89
2019-01-02T13:01:18.089Z,62.45
2019-01-02T13:04:25.935Z,62.22
2019-01-02T13:08:04.709Z,62.28
2019-01-02T13:11:02.785Z,62.16
2019-01-02T13:14:12.823Z,61.37
2019-01-02T13:17:05.123Z,61.55
2019-01-02T13:20:19.022Z,61.26
2019-01-02T13:23:25.560Z,61.68
2019-01-02T13:26:13.865Z,61.88
2019-01-02T13:29:27.523Z,61.77
2019-01-02T13:32:16.525Z,61.67
2019-01-02T13:35:34.376Z,61.43
2019-01-02T13:38:14.608Z,63.55
2019-01-02T13:41:23.420Z,62.42
2019-01-02T13:44:17.098Z,62.19
2019-01-02T13:47:17.495Z,65.12
2019-01-02T13:50:18.975Z,66.90
2019-01-02T13:52:46.231Z,68.61
2019-01-02T13:55:16.376Z,69.74
2019-01-02T13:57:43.418Z,70.40
2019-01-02T14:00:10.491Z,71.19
2019-01-02T14:02:37.572Z,71.80
2019-01-02T14:05:07.382Z,72.50
2019-01-02T14:07:34.430Z,73.20
2019-01-02T14:10:01.492Z,73.64
2019-01-02T14:12:28.582Z,73.95
2019-01-02T14:14:55.642Z,74.43
2019-01-02T14:17:22.707Z,74.68
2019-01-02T14:19:49.778Z,74.64
2019-01-02T14:22:16.873Z,74.43
2019-01-02T14:24:43.960Z,74.94
2019-01-02T14:27:11.046Z,75.62
2019-01-02T14:29:38.210Z,75.74
2019-01-02T14:32:05.284Z,75.83
2019-01-02T14:34:32.375Z,75.83
2019-01-02T14:36:59.433Z,75.93
2019-01-02T14:39:26.479Z,75.70
2019-01-02T14:41:53.526Z,75.70
2019-01-02T14:44:20.573Z,75.50
2019-01-02T14:46:50.571Z,75.50
2019-01-02T14:49:16.611Z,73.82
2019-01-02T14:51:43.678Z,73.82
2019-01-02T14:54:10.732Z,73.21
2019-01-02T14:56:37.810Z,72.46
2019-01-02T14:59:04.864Z,72.13
2019-01-02T15:01:31.989Z,71.83
2019-01-02T15:03:59.045Z,71.93
2019-01-02T15:06:26.120Z,71.68
2019-01-02T15:08:53.219Z,71.68
2019-01-02T15:11:20.275Z,71.39
2019-01-02T15:13:47.382Z,71.21
2019-01-02T15:16:14.476Z,71.19
2019-01-02T15:18:41.561Z,70.94
2019-01-02T15:21:08.603Z,70.94
2019-01-02T15:23:35.668Z,71.75
2019-01-02T15:26:02.754Z,71.75
2019-01-02T15:28:29.847Z,72.55
2019-01-02T15:30:56.910Z,71.59
2019-01-02T15:33:23.980Z,70.52
2019-01-02T15:35:51.066Z,70.68
2019-01-02T15:38:18.147Z,70.52
2019-01-02T15:40:45.241Z,70.66
2019-01-02T15:43:12.330Z,71.15
2019-01-02T15:45:39.390Z,71.70
2019-01-02T15:48:06.470Z,71.64
2019-01-02T15:50:33.553Z,71.63
2019-01-02T15:53:00.676Z,71.83
2019-01-02T15:55:27.742Z,71.92
2019-01-02T15:57:54.810Z,72.12
2019-01-02T16:00:21.901Z,72.17
2019-01-02T16:02:48.991Z,72.17
2019-01-02T16:05:16.087Z,71.33
2019-01-02T16:07:44.236Z,71.92
2019-01-02T16:10:11.088Z,71.92
2019-01-02T16:12:38.163Z,71.99
2019-01-02T16:15:05.888Z,71.37
2019-01-02T16:17:32.964Z,71.44
2019-01-02T16:20:00.374Z,70.22
2019-01-02T16:22:27.634Z,70.22
2019-01-02T16:24:56.361Z,69.34
2019-01-02T16:27:23.780Z,68.61
2019-01-02T16:29:53.107Z,68.74
2019-01-02T16:32:20.228Z,68.50
2019-01-02T16:34:47.315Z,67.90
2019-01-02T16:37:14.417Z,67.50
2019-01-02T16:39:43.029Z,67.19
2019-01-02T16:42:10.130Z,67.19
2019-01-02T16:44:37.216Z,67.41
2019-01-02T16:47:04.314Z,67.04
2019-01-02T16:49:31.418Z,67.24
2019-01-02T16:51:58.521Z,67.17
2019-01-02T16:54:25.615Z,66.43
2019-01-02T16:56:52.709Z,66.49
2019-01-02T16:59:19.796Z,66.55
2019-01-02T17:01:46.966Z,66.03
2019-01-02T17:04:14.025Z,66.43
2019-01-02T17:06:41.127Z,66.49
2019-01-02T17:09:08.563Z,66.40
2019-01-02T17:11:35.937Z,66.33
2019-01-02T17:14:03.030Z,66.32
2019-01-02T17:16:30.137Z,66.13
2019-01-02T17:18:57.229Z,65.99
2019-01-02T17:21:24.516Z,65.96
2019-01-02T17:23:51.599Z,66.07
2019-01-02T17:26:19.012Z,66.07
2019-01-02T17:28:46.448Z,66.27
2019-01-02T17:31:13.557Z,66.41
2019-01-02T17:33:40.687Z,66.47
2019-01-02T17:36:07.793Z,66.50
2019-01-02T17:38:34.936Z,66.58
2019-01-02T17:41:02.085Z,66.73
2019-01-02T17:43:29.423Z,66.67
2019-01-02T17:45:56.546Z,66.49
2019-01-02T17:48:24.316Z,66.19
2019-01-02T17:50:51.534Z,65.98
2019-01-02T17:56:27.063Z,65.88
2019-01-02T17:58:54.181Z,65.80
2019-01-02T18:01:21.396Z,65.66
2019-01-02T18:03:48.509Z,65.82
2019-01-02T18:06:15.650Z,65.70
2019-01-02T18:08:42.742Z,65.75
2019-01-02T18:11:10.447Z,65.94
2019-01-02T18:13:37.576Z,65.88
2019-01-02T18:16:04.685Z,66.06
2019-01-02T18:18:32.123Z,65.85
2019-01-02T18:20:59.305Z,66.02
2019-01-02T18:23:28.511Z,66.10
2019-01-02T18:25:55.651Z,66.14
2019-01-02T18:28:22.819Z,66.10
2019-01-02T18:30:49.977Z,65.97
2019-01-02T18:33:17.093Z,65.87
2019-01-02T18:35:44.268Z,65.84
2019-01-02T18:38:12.488Z,65.96
2019-01-02T18:40:39.668Z,65.83
2019-01-02T18:43:06.878Z,66.01
2019-01-02T18:45:34.347Z,66.05
2019-01-02T18:48:01.907Z,66.10
2019-01-02T18:50:29.236Z,65.46
2019-01-02T18:52:56.595Z,65.73
2019-01-02T18:55:23.861Z,65.79
2019-01-02T18:57:51.204Z,65.72
2019-01-02T19:00:18.460Z,66.53
2019-01-02T19:02:52.988Z,66.45
2019-01-02T19:05:20.826Z,66.71
2019-01-02T19:07:48.083Z,65.71
2019-01-02T19:10:15.363Z,66.31
2019-01-02T19:12:42.726Z,65.76
2019-01-02T19:15:10.010Z,65.88
2019-01-02T19:17:37.183Z,66.08
2019-01-02T19:20:04.869Z,66.15
2019-01-02T19:22:32.105Z,66.14
2019-01-02T19:24:59.275Z,66.33
2019-01-02T19:27:27.570Z,66.39
2019-01-02T19:29:54.787Z,66.50
2019-01-02T19:32:22.075Z,66.50
2019-01-02T19:34:49.516Z,66.28
2019-01-02T19:37:17.165Z,66.13
2019-01-02T19:39:44.619Z,66.16
2019-01-02T19:42:12.016Z,65.98
2019-01-02T19:44:39.456Z,66.00
2019-01-02T19:47:06.706Z,66.17
2019-01-02T19:49:34.075Z,66.34
2019-01-02T19:52:02.044Z,66.36
2019-01-02T19:54:29.736Z,66.36
2019-01-02T19:56:57.416Z,66.38
2019-01-02T19:59:24.826Z,66.34
2019-01-02T20:01:52.122Z,66.40
2019-01-02T20:04:19.522Z,66.57
2019-01-02T20:06:47.223Z,66.70
2019-01-02T20:09:14.632Z,66.80
2019-01-02T20:11:42.446Z,66.98
2019-01-02T20:14:11.060Z,67.03
2019-01-02T20:16:39.414Z,67.12
2019-01-02T20:19:09.889Z,67.15
2019-01-02T20:21:38.206Z,67.21
2019-01-02T20:24:10.778Z,67.31
2019-01-02T20:26:40.878Z,67.32
2019-01-02T20:29:09.364Z,67.23
2019-01-02T20:31:36.997Z,67.09
2019-01-02T20:34:04.756Z,66.93
2019-01-02T20:36:32.546Z,66.93
2019-01-02T20:39:00.861Z,67.04
2019-01-02T20:41:29.148Z,67.11
2019-01-02T20:43:59.414Z,66.99
2019-01-02T20:46:28.550Z,67.07
2019-01-02T20:49:04.629Z,67.16
2019-01-02T20:51:32.994Z,67.00
2019-01-02T20:54:00.535Z,66.98
2019-01-02T20:56:28.561Z,67.19
2019-01-02T20:58:56.211Z,67.10
2019-01-02T21:01:23.959Z,67.26
2019-01-02T21:03:52.058Z,67.07
2019-01-02T21:06:31.746Z,67.13
2019-01-02T21:08:59.474Z,67.15
2019-01-02T21:11:27.369Z,67.32
2019-01-02T21:13:56.264Z,67.47
2019-01-02T21:16:23.848Z,67.36
2019-01-02T21:18:52.065Z,67.27
2019-01-02T21:21:20.314Z,66.91
2019-01-02T21:23:47.748Z,66.61
2019-01-02T21:26:15.535Z,66.43
2019-01-02T21:28:42.903Z,65.97
2019-01-02T21:31:10.250Z,65.36
2019-01-02T21:33:38.807Z,65.14
2019-01-02T21:36:06.241Z,64.71
2019-01-02T21:38:33.409Z,64.42
2019-01-02T21:41:00.598Z,64.22
2019-01-02T21:43:29.634Z,64.28
2019-01-02T21:45:56.784Z,64.31
2019-01-02T21:48:24.082Z,64.53
2019-01-02T21:50:54.391Z,64.26
2019-01-02T21:53:21.585Z,63.96
2019-01-02T21:55:48.790Z,63.74
2019-01-02T21:58:16.014Z,63.65
2019-01-02T22:00:43.232Z,63.63
2019-01-02T22:03:11.501Z,63.63
2019-01-02T22:05:38.695Z,63.76
2019-01-02T22:08:07.029Z,63.76
2019-01-02T22:10:35.477Z,63.94
2019-01-02T22:13:05.227Z,63.89
2019-01-02T22:15:32.726Z,63.84
2019-01-02T22:17:59.889Z,63.54
2019-01-02T22:20:27.275Z,63.50
2019-01-02T22:22:54.813Z,63.17
2019-01-02T22:25:21.964Z,63.35
2019-01-02T22:27:49.135Z,63.05
2019-01-02T22:30:16.243Z,63.13
2019-01-02T22:32:43.366Z,63.31
2019-01-02T22:35:10.511Z,63.36
2019-01-02T22:37:37.912Z,63.34
2019-01-02T22:40:05.970Z,63.39
2019-01-02T22:42:33.057Z,63.48
2019-01-02T22:45:00.162Z,63.54
2019-01-02T22:47:27.546Z,63.60
2019-01-02T22:49:54.635Z,63.50
2019-01-02T22:52:21.752Z,63.74
2019-01-02T22:54:49.135Z,63.70
2019-01-02T22:57:16.260Z,63.58
2019-01-02T22:59:43.720Z,63.53
2019-01-02T23:02:22.253Z,63.62
2019-01-02T23:05:03.292Z,63.37
2019-01-02T23:08:01.306Z,63.39
2019-01-02T23:10:46.538Z,62.92
2019-01-02T23:13:36.879Z,63.08
2019-01-02T23:16:20.483Z,62.71
2019-01-02T23:19:05.504Z,62.77
2019-01-02T23:21:54.109Z,62.36
2019-01-02T23:24:40.812Z,62.37
2019-01-02T23:27:26.234Z,61.08
2019-01-02T23:30:25.118Z,60.64
2019-01-02T23:33:14.730Z,59.98
2019-01-02T23:36:07.298Z,61.14
2019-01-02T23:38:55.141Z,63.18
2019-01-02T23:41:40.447Z,64.26
2019-01-02T23:44:25.808Z,64.43
2019-01-02T23:47:30.694Z,63.88
2019-01-02T23:50:17.294Z,64.31
2019-01-02T23:53:03.966Z,64.36
2019-01-02T23:55:50.678Z,64.78
2019-01-02T23:58:37.378Z,65.31
